createdAt,value
2023-11-12T00:00:16.301Z,30.10
2023-11-12T00:09:00.637Z,32.00
2023-11-12T00:17:29.925Z,31.40
2023-11-12T00:25:55.328Z,30.50
2023-11-12T00:34:23.230Z,31.70
2023-11-12T00:42:47.903Z,33.50
2023-11-12T00:51:14.831Z,36.10
2023-11-12T00:59:40.547Z,34.70
2023-11-12T01:08:04.242Z,37.30
2023-11-12T01:16:29.626Z,36.60
2023-11-12T01:24:53.984Z,41.20
2023-11-12T01:33:20.528Z,39.50
2023-11-12T01:41:44.976Z,47.40
2023-11-12T01:50:14.309Z,47.20
2023-11-12T01:58:44.448Z,48.30
2023-11-12T02:07:08.944Z,51.10
2023-11-12T02:15:34.419Z,49.20
2023-11-12T02:24:03.010Z,50.20
2023-11-12T02:32:36.042Z,45.30
2023-11-12T02:41:03.347Z,36.90
2023-11-12T02:50:06.952Z,45.00
2023-11-12T02:58:31.045Z,44.80
2023-11-12T03:06:58.977Z,45.10
2023-11-12T03:15:25.662Z,39.80
2023-11-12T03:23:51.751Z,35.70
2023-11-12T03:32:16.658Z,36.80
2023-11-12T03:40:40.847Z,36.40
2023-11-12T03:49:06.140Z,39.30
2023-11-12T03:57:33.753Z,36.10
2023-11-12T04:05:57.843Z,33.20
2023-11-12T04:14:23.739Z,35.50
2023-11-12T04:22:48.415Z,32.80
2023-11-12T04:31:17.503Z,32.20
2023-11-12T04:39:42.594Z,31.50
2023-11-12T04:48:07.700Z,32.80
2023-11-12T04:56:33.032Z,29.40
2023-11-12T05:04:59.387Z,32.40
2023-11-12T05:13:23.817Z,32.10
2023-11-12T05:21:49.072Z,29.70
2023-11-12T05:30:14.032Z,27.10
2023-11-12T05:38:40.053Z,29.40
2023-11-12T05:47:05.660Z,27.30
2023-11-12T05:55:35.245Z,23.20
2023-11-12T06:04:01.702Z,23.10
2023-11-12T06:12:26.515Z,27.10
2023-11-12T06:20:53.208Z,25.20
2023-11-12T06:29:16.967Z,23.80
2023-11-12T06:37:40.361Z,23.30
2023-11-12T06:46:08.783Z,21.40
2023-11-12T06:54:34.495Z,23.00
2023-11-12T07:02:58.495Z,21.50
2023-11-12T07:11:22.968Z,18.50
2023-11-12T07:19:46.920Z,16.60
2023-11-12T07:28:18.538Z,18.50
2023-11-12T07:36:44.685Z,17.80
2023-11-12T07:45:13.947Z,19.40
2023-11-12T07:53:40.194Z,15.40
2023-11-12T08:02:03.729Z,16.00
2023-11-12T08:10:28.081Z,15.40
2023-11-12T08:18:55.131Z,17.20
2023-11-12T08:27:19.647Z,18.20
2023-11-12T08:35:43.026Z,18.60
2023-11-12T08:44:08.385Z,99.90
2023-11-12T08:52:33.528Z,35.20
2023-11-12T09:00:59.104Z,17.50
2023-11-12T09:09:24.648Z,14.30
2023-11-12T09:17:48.856Z,38.20
2023-11-12T09:26:22.179Z,13.90
2023-11-12T09:34:47.187Z,14.60
2023-11-12T09:43:13.937Z,43.70
2023-11-12T09:51:45.047Z,27.80
2023-11-12T10:00:13.814Z,12.30
2023-11-12T10:08:40.766Z,11.60
2023-11-12T10:17:11.801Z,10.30
2023-11-12T10:25:53.636Z,12.20
2023-11-12T10:34:20.526Z,10.80
2023-11-12T10:42:46.062Z,9.30
2023-11-12T10:51:11.843Z,8.30
2023-11-12T10:59:40.262Z,9.10
2023-11-12T11:08:05.176Z,9.10
2023-11-12T11:16:55.749Z,10.50
2023-11-12T11:25:33.906Z,10.90
2023-11-12T11:34:19.982Z,10.70
2023-11-12T11:42:51.872Z,13.20
2023-11-12T11:51:56.549Z,14.30
2023-11-12T12:00:20.133Z,14.40
2023-11-12T12:08:54.046Z,16.70
2023-11-12T12:17:38.237Z,17.70
2023-11-12T12:26:02.646Z,18.20
2023-11-12T12:34:27.605Z,27.80
2023-11-12T12:42:55.742Z,22.20
2023-11-12T12:51:21.428Z,22.10
2023-11-12T12:59:47.720Z,21.90
2023-11-12T13:08:12.550Z,18.50
2023-11-12T13:16:39.605Z,17.60
2023-11-12T13:25:07.291Z,21.20
2023-11-12T13:33:32.779Z,19.00
2023-11-12T13:41:59.083Z,17.50
2023-11-12T13:50:29.420Z,19.10
2023-11-12T13:58:54.469Z,17.60
2023-11-12T14:07:18.320Z,16.20
2023-11-12T14:16:01.629Z,19.70
2023-11-12T14:24:25.802Z,17.40
2023-11-12T14:32:52.303Z,19.50
2023-11-12T14:41:18.710Z,19.50
2023-11-12T14:49:42.590Z,17.40
2023-11-12T14:58:08.928Z,17.50
2023-11-12T15:06:32.852Z,15.90
2023-11-12T15:14:58.764Z,26.80
2023-11-12T15:23:22.914Z,28.30
2023-11-12T15:31:49.529Z,23.70
2023-11-12T15:40:24.218Z,28.80
2023-11-12T15:48:55.209Z,17.90
2023-11-12T15:57:42.539Z,13.70
2023-11-12T16:06:09.443Z,17.90
2023-11-12T16:14:33.179Z,28.20
2023-11-12T16:22:57.760Z,24.50
2023-11-12T16:31:22.439Z,20.10
2023-11-12T16:39:52.112Z,18.00
2023-11-12T16:48:15.448Z,18.00
2023-11-12T16:56:39.766Z,24.70
2023-11-12T17:05:06.535Z,18.10
2023-11-12T17:13:34.399Z,16.50
2023-11-12T17:21:59.817Z,16.20
2023-11-12T17:30:26.370Z,13.80
2023-11-12T17:38:54.281Z,16.00
2023-11-12T17:47:19.057Z,15.90
2023-11-12T17:55:46.192Z,16.00
2023-11-12T18:04:13.459Z,17.80
2023-11-12T18:12:38.697Z,122.60
2023-11-12T18:21:02.593Z,213.80
2023-11-12T18:29:26.418Z,81.20
2023-11-12T18:37:53.377Z,55.40
2023-11-12T18:46:18.745Z,76.50
2023-11-12T18:54:44.546Z,26.70
2023-11-12T19:03:08.749Z,28.60
2023-11-12T19:11:35.260Z,48.80
2023-11-12T19:20:05.937Z,29.60
2023-11-12T19:28:33.154Z,26.90
2023-11-12T19:36:57.169Z,19.90
2023-11-12T19:45:47.103Z,20.90
2023-11-12T19:54:14.367Z,18.70
2023-11-12T20:02:41.732Z,18.40
2023-11-12T20:11:08.261Z,16.80
2023-11-12T20:19:35.233Z,14.40
2023-11-12T20:27:59.410Z,13.00
2023-11-12T20:36:24.231Z,12.70
2023-11-12T20:44:50.204Z,12.40
2023-11-12T20:53:13.512Z,12.40
2023-11-12T21:01:38.881Z,13.90
2023-11-12T21:10:05.014Z,11.70
2023-11-12T21:18:29.661Z,12.00
2023-11-12T21:26:55.649Z,10.80
2023-11-12T21:35:21.227Z,11.90
2023-11-12T21:43:48.969Z,11.70
2023-11-12T21:52:12.928Z,11.10
2023-11-12T22:00:38.757Z,10.30
2023-11-12T22:09:25.393Z,9.70
2023-11-12T22:17:53.740Z,17.80
2023-11-12T22:26:17.981Z,9.40
2023-11-12T22:34:41.894Z,8.80
2023-11-12T22:43:06.171Z,10.30
2023-11-12T22:51:30.952Z,9.60
2023-11-12T22:59:56.982Z,9.90
2023-11-12T23:08:21.379Z,9.10
2023-11-12T23:16:48.422Z,9.90
2023-11-12T23:25:15.149Z,9.30
2023-11-12T23:33:40.377Z,8.70
2023-11-12T23:42:04.610Z,8.50
2023-11-12T23:50:30.536Z,9.40
2023-11-12T23:58:56.640Z,9.00
